sensor_id;sensor_type;location;lat;lon;timestamp;P1;durP1;ratioP1;P2;durP2;ratioP2
26062;SDS011;13837;48.562;12.108;2023-05-16T00:00:18;14.98;;;13.68;;
26062;SDS011;13837;48.562;12.108;2023-05-16T00:02:44;14.82;;;13.43;;
26062;SDS011;13837;48.562;12.108;2023-05-16T00:05:11;14.40;;;13.30;;
26062;SDS011;13837;48.562;12.108;2023-05-16T00:07:41;15.05;;;13.48;;
26062;SDS011;13837;48.562;12.108;2023-05-16T00:12:34;14.40;;;13.07;;
26062;SDS011;13837;48.562;12.108;2023-05-16T00:15:06;14.23;;;12.82;;
26062;SDS011;13837;48.562;12.108;2023-05-16T00:17:36;14.40;;;13.10;;
26062;SDS011;13837;48.562;12.108;2023-05-16T00:20:33;13.88;;;12.52;;
26062;SDS011;13837;48.562;12.108;2023-05-16T00:23:01;14.27;;;13.07;;
26062;SDS011;13837;48.562;12.108;2023-05-16T00:25:28;14.02;;;12.88;;
26062;SDS011;13837;48.562;12.108;2023-05-16T00:31:27;15.18;;;13.88;;
26062;SDS011;13837;48.562;12.108;2023-05-16T00:33:53;14.30;;;13.18;;
26062;SDS011;13837;48.562;12.108;2023-05-16T00:36:20;15.25;;;13.93;;
26062;SDS011;13837;48.562;12.108;2023-05-16T00:38:46;14.65;;;13.40;;
26062;SDS011;13837;48.562;12.108;2023-05-16T00:41:12;15.40;;;14.00;;
26062;SDS011;13837;48.562;12.108;2023-05-16T00:44:03;15.63;;;14.15;;
26062;SDS011;13837;48.562;12.108;2023-05-16T00:46:30;15.40;;;13.90;;
26062;SDS011;13837;48.562;12.108;2023-05-16T00:48:57;14.82;;;13.50;;
26062;SDS011;13837;48.562;12.108;2023-05-16T00:51:24;14.15;;;12.98;;
26062;SDS011;13837;48.562;12.108;2023-05-16T00:53:51;15.25;;;13.93;;
26062;SDS011;13837;48.562;12.108;2023-05-16T00:56:18;14.82;;;13.35;;
26062;SDS011;13837;48.562;12.108;2023-05-16T00:58:48;15.25;;;13.75;;
26062;SDS011;13837;48.562;12.108;2023-05-16T01:01:16;15.80;;;14.20;;
26062;SDS011;13837;48.562;12.108;2023-05-16T01:03:44;14.63;;;13.43;;
26062;SDS011;13837;48.562;12.108;2023-05-16T01:06:30;15.48;;;14.02;;
26062;SDS011;13837;48.562;12.108;2023-05-16T01:08:57;15.95;;;14.20;;
26062;SDS011;13837;48.562;12.108;2023-05-16T01:11:29;16.05;;;14.60;;
26062;SDS011;13837;48.562;12.108;2023-05-16T01:14:02;15.73;;;14.18;;
26062;SDS011;13837;48.562;12.108;2023-05-16T01:19:30;15.45;;;13.93;;
26062;SDS011;13837;48.562;12.108;2023-05-16T01:22:19;15.77;;;14.40;;
26062;SDS011;13837;48.562;12.108;2023-05-16T01:27:23;16.50;;;15.00;;
26062;SDS011;13837;48.562;12.108;2023-05-16T01:29:54;15.07;;;13.68;;
26062;SDS011;13837;48.562;12.108;2023-05-16T01:34:47;16.70;;;15.20;;
26062;SDS011;13837;48.562;12.108;2023-05-16T01:37:15;16.05;;;14.70;;
26062;SDS011;13837;48.562;12.108;2023-05-16T01:39:47;16.20;;;14.90;;
26062;SDS011;13837;48.562;12.108;2023-05-16T01:42:15;17.00;;;15.30;;
26062;SDS011;13837;48.562;12.108;2023-05-16T01:44:45;16.40;;;14.70;;
26062;SDS011;13837;48.562;12.108;2023-05-16T01:47:16;16.92;;;15.43;;
26062;SDS011;13837;48.562;12.108;2023-05-16T01:52:20;17.15;;;15.65;;
26062;SDS011;13837;48.562;12.108;2023-05-16T01:54:48;16.85;;;15.20;;
26062;SDS011;13837;48.562;12.108;2023-05-16T01:57:17;16.92;;;15.32;;
26062;SDS011;13837;48.562;12.108;2023-05-16T01:59:44;16.75;;;15.30;;
26062;SDS011;13837;48.562;12.108;2023-05-16T02:02:10;17.02;;;15.38;;
26062;SDS011;13837;48.562;12.108;2023-05-16T02:04:36;15.80;;;14.40;;
26062;SDS011;13837;48.562;12.108;2023-05-16T02:07:02;16.10;;;14.70;;
26062;SDS011;13837;48.562;12.108;2023-05-16T02:09:29;17.50;;;15.57;;
26062;SDS011;13837;48.562;12.108;2023-05-16T02:11:55;15.75;;;14.35;;
26062;SDS011;13837;48.562;12.108;2023-05-16T02:14:23;16.58;;;15.07;;
26062;SDS011;13837;48.562;12.108;2023-05-16T02:16:49;16.58;;;15.13;;
26062;SDS011;13837;48.562;12.108;2023-05-16T02:19:16;17.92;;;15.65;;
26062;SDS011;13837;48.562;12.108;2023-05-16T02:21:42;16.50;;;14.93;;
26062;SDS011;13837;48.562;12.108;2023-05-16T02:24:10;17.88;;;16.23;;
26062;SDS011;13837;48.562;12.108;2023-05-16T02:26:36;16.00;;;14.63;;
26062;SDS011;13837;48.562;12.108;2023-05-16T02:29:02;17.42;;;15.63;;
26062;SDS011;13837;48.562;12.108;2023-05-16T02:31:28;17.10;;;15.60;;
26062;SDS011;13837;48.562;12.108;2023-05-16T02:33:55;17.08;;;15.48;;
26062;SDS011;13837;48.562;12.108;2023-05-16T02:36:22;16.63;;;15.23;;
26062;SDS011;13837;48.562;12.108;2023-05-16T02:38:48;18.85;;;15.15;;
26062;SDS011;13837;48.562;12.108;2023-05-16T02:41:14;17.02;;;15.48;;
26062;SDS011;13837;48.562;12.108;2023-05-16T02:43:41;16.95;;;15.30;;
26062;SDS011;13837;48.562;12.108;2023-05-16T02:46:30;16.60;;;15.10;;
26062;SDS011;13837;48.562;12.108;2023-05-16T02:48:55;17.27;;;15.48;;
26062;SDS011;13837;48.562;12.108;2023-05-16T02:51:22;17.67;;;16.08;;
26062;SDS011;13837;48.562;12.108;2023-05-16T02:53:48;18.17;;;16.13;;
26062;SDS011;13837;48.562;12.108;2023-05-16T02:56:15;17.92;;;16.33;;
26062;SDS011;13837;48.562;12.108;2023-05-16T02:58:41;18.30;;;16.40;;
26062;SDS011;13837;48.562;12.108;2023-05-16T03:01:07;20.08;;;16.15;;
26062;SDS011;13837;48.562;12.108;2023-05-16T03:03:35;17.77;;;16.08;;
26062;SDS011;13837;48.562;12.108;2023-05-16T03:06:01;17.98;;;16.27;;
26062;SDS011;13837;48.562;12.108;2023-05-16T03:08:27;17.90;;;16.20;;
26062;SDS011;13837;48.562;12.108;2023-05-16T03:10:55;18.17;;;16.35;;
26062;SDS011;13837;48.562;12.108;2023-05-16T03:13:21;18.08;;;16.38;;
26062;SDS011;13837;48.562;12.108;2023-05-16T03:15:47;17.77;;;16.13;;
26062;SDS011;13837;48.562;12.108;2023-05-16T03:18:13;18.80;;;16.80;;
26062;SDS011;13837;48.562;12.108;2023-05-16T03:20:41;20.48;;;18.05;;
26062;SDS011;13837;48.562;12.108;2023-05-16T03:23:07;16.90;;;15.40;;
26062;SDS011;13837;48.562;12.108;2023-05-16T03:25:34;19.02;;;17.20;;
26062;SDS011;13837;48.562;12.108;2023-05-16T03:28:04;17.95;;;16.13;;
26062;SDS011;13837;48.562;12.108;2023-05-16T03:30:32;18.35;;;16.65;;
26062;SDS011;13837;48.562;12.108;2023-05-16T03:32:58;18.52;;;16.75;;
26062;SDS011;13837;48.562;12.108;2023-05-16T03:35:24;18.83;;;16.98;;
26062;SDS011;13837;48.562;12.108;2023-05-16T03:37:50;18.38;;;16.55;;
26062;SDS011;13837;48.562;12.108;2023-05-16T03:40:17;18.60;;;16.83;;
26062;SDS011;13837;48.562;12.108;2023-05-16T03:42:43;21.48;;;18.25;;
26062;SDS011;13837;48.562;12.108;2023-05-16T03:45:10;20.80;;;18.55;;
26062;SDS011;13837;48.562;12.108;2023-05-16T03:47:36;25.25;;;20.58;;
26062;SDS011;13837;48.562;12.108;2023-05-16T03:50:03;24.10;;;20.05;;
26062;SDS011;13837;48.562;12.108;2023-05-16T03:52:29;20.60;;;18.50;;
26062;SDS011;13837;48.562;12.108;2023-05-16T03:54:55;21.35;;;19.15;;
26062;SDS011;13837;48.562;12.108;2023-05-16T03:57:21;21.15;;;19.15;;
26062;SDS011;13837;48.562;12.108;2023-05-16T03:59:48;20.17;;;18.17;;
26062;SDS011;13837;48.562;12.108;2023-05-16T04:02:14;23.60;;;19.15;;
26062;SDS011;13837;48.562;12.108;2023-05-16T04:04:40;19.92;;;17.83;;
26062;SDS011;13837;48.562;12.108;2023-05-16T04:07:06;19.02;;;17.05;;
26062;SDS011;13837;48.562;12.108;2023-05-16T04:09:32;19.48;;;17.63;;
26062;SDS011;13837;48.562;12.108;2023-05-16T04:11:58;19.80;;;17.92;;
26062;SDS011;13837;48.562;12.108;2023-05-16T04:14:27;20.92;;;18.75;;
26062;SDS011;13837;48.562;12.108;2023-05-16T04:16:53;20.30;;;18.30;;
26062;SDS011;13837;48.562;12.108;2023-05-16T04:19:19;21.70;;;18.67;;
26062;SDS011;13837;48.562;12.108;2023-05-16T04:21:45;22.77;;;19.33;;
26062;SDS011;13837;48.562;12.108;2023-05-16T04:24:11;21.75;;;19.55;;
26062;SDS011;13837;48.562;12.108;2023-05-16T04:26:37;21.50;;;19.40;;
26062;SDS011;13837;48.562;12.108;2023-05-16T04:29:03;20.73;;;18.63;;
26062;SDS011;13837;48.562;12.108;2023-05-16T04:31:30;23.27;;;20.85;;
26062;SDS011;13837;48.562;12.108;2023-05-16T04:33:56;21.83;;;19.70;;
26062;SDS011;13837;48.562;12.108;2023-05-16T04:36:22;22.13;;;19.90;;
26062;SDS011;13837;48.562;12.108;2023-05-16T04:38:48;20.52;;;18.40;;
26062;SDS011;13837;48.562;12.108;2023-05-16T04:41:15;21.20;;;19.27;;
26062;SDS011;13837;48.562;12.108;2023-05-16T04:43:41;22.35;;;20.15;;
26062;SDS011;13837;48.562;12.108;2023-05-16T04:46:07;21.00;;;19.08;;
26062;SDS011;13837;48.562;12.108;2023-05-16T04:48:34;21.13;;;19.02;;
26062;SDS011;13837;48.562;12.108;2023-05-16T04:51:00;22.77;;;20.52;;
26062;SDS011;13837;48.562;12.108;2023-05-16T04:53:26;21.35;;;19.23;;
26062;SDS011;13837;48.562;12.108;2023-05-16T04:55:52;23.35;;;20.10;;
26062;SDS011;13837;48.562;12.108;2023-05-16T04:58:19;23.80;;;20.98;;
26062;SDS011;13837;48.562;12.108;2023-05-16T05:00:48;23.90;;;21.52;;
26062;SDS011;13837;48.562;12.108;2023-05-16T05:03:15;22.73;;;20.38;;
26062;SDS011;13837;48.562;12.108;2023-05-16T05:05:42;22.10;;;19.75;;
26062;SDS011;13837;48.562;12.108;2023-05-16T05:08:08;21.33;;;19.23;;
26062;SDS011;13837;48.562;12.108;2023-05-16T05:10:34;21.83;;;19.52;;
26062;SDS011;13837;48.562;12.108;2023-05-16T05:13:01;22.45;;;20.20;;
26062;SDS011;13837;48.562;12.108;2023-05-16T05:15:27;23.27;;;20.90;;
26062;SDS011;13837;48.562;12.108;2023-05-16T05:17:53;26.15;;;21.02;;
26062;SDS011;13837;48.562;12.108;2023-05-16T05:20:19;25.05;;;21.40;;
26062;SDS011;13837;48.562;12.108;2023-05-16T05:22:45;23.88;;;21.50;;
26062;SDS011;13837;48.562;12.108;2023-05-16T05:25:13;24.33;;;21.92;;
26062;SDS011;13837;48.562;12.108;2023-05-16T05:27:39;24.60;;;22.13;;
26062;SDS011;13837;48.562;12.108;2023-05-16T05:30:05;25.27;;;22.65;;
26062;SDS011;13837;48.562;12.108;2023-05-16T05:32:31;25.65;;;22.88;;
26062;SDS011;13837;48.562;12.108;2023-05-16T05:34:58;25.92;;;23.15;;
26062;SDS011;13837;48.562;12.108;2023-05-16T05:37:24;23.55;;;21.15;;
26062;SDS011;13837;48.562;12.108;2023-05-16T05:39:51;25.50;;;22.95;;
26062;SDS011;13837;48.562;12.108;2023-05-16T05:42:17;23.13;;;20.83;;
26062;SDS011;13837;48.562;12.108;2023-05-16T05:44:43;24.45;;;21.90;;
26062;SDS011;13837;48.562;12.108;2023-05-16T05:47:09;23.35;;;21.10;;
26062;SDS011;13837;48.562;12.108;2023-05-16T05:49:36;23.52;;;21.23;;
26062;SDS011;13837;48.562;12.108;2023-05-16T05:52:02;26.10;;;20.60;;
26062;SDS011;13837;48.562;12.108;2023-05-16T05:54:28;23.67;;;21.20;;
26062;SDS011;13837;48.562;12.108;2023-05-16T05:56:55;23.33;;;21.02;;
26062;SDS011;13837;48.562;12.108;2023-05-16T05:59:22;24.65;;;22.15;;
26062;SDS011;13837;48.562;12.108;2023-05-16T06:01:48;24.25;;;21.85;;
26062;SDS011;13837;48.562;12.108;2023-05-16T06:06:43;23.67;;;20.65;;
26062;SDS011;13837;48.562;12.108;2023-05-16T06:09:10;22.52;;;20.27;;
26062;SDS011;13837;48.562;12.108;2023-05-16T06:11:38;22.33;;;20.15;;
26062;SDS011;13837;48.562;12.108;2023-05-16T06:14:04;23.75;;;21.35;;
26062;SDS011;13837;48.562;12.108;2023-05-16T06:16:30;22.35;;;20.15;;
26062;SDS011;13837;48.562;12.108;2023-05-16T06:18:56;21.52;;;19.38;;
26062;SDS011;13837;48.562;12.108;2023-05-16T06:21:22;21.75;;;19.45;;
26062;SDS011;13837;48.562;12.108;2023-05-16T06:23:48;20.83;;;18.83;;
26062;SDS011;13837;48.562;12.108;2023-05-16T06:26:14;21.83;;;19.50;;
26062;SDS011;13837;48.562;12.108;2023-05-16T06:28:40;22.08;;;19.67;;
26062;SDS011;13837;48.562;12.108;2023-05-16T06:31:06;22.48;;;20.23;;
26062;SDS011;13837;48.562;12.108;2023-05-16T06:33:33;22.38;;;20.17;;
26062;SDS011;13837;48.562;12.108;2023-05-16T06:35:59;23.05;;;20.65;;
26062;SDS011;13837;48.562;12.108;2023-05-16T06:38:26;21.65;;;19.35;;
26062;SDS011;13837;48.562;12.108;2023-05-16T06:40:52;23.38;;;21.08;;
26062;SDS011;13837;48.562;12.108;2023-05-16T06:43:18;21.88;;;19.70;;
26062;SDS011;13837;48.562;12.108;2023-05-16T06:45:44;21.73;;;19.70;;
26062;SDS011;13837;48.562;12.108;2023-05-16T06:48:12;22.35;;;20.23;;
26062;SDS011;13837;48.562;12.108;2023-05-16T06:50:39;21.00;;;18.90;;
26062;SDS011;13837;48.562;12.108;2023-05-16T06:53:05;20.23;;;17.92;;
26062;SDS011;13837;48.562;12.108;2023-05-16T06:55:34;21.55;;;19.25;;
26062;SDS011;13837;48.562;12.108;2023-05-16T06:58:00;22.17;;;19.75;;
26062;SDS011;13837;48.562;12.108;2023-05-16T07:00:26;21.58;;;19.27;;
26062;SDS011;13837;48.562;12.108;2023-05-16T07:02:52;21.08;;;18.88;;
26062;SDS011;13837;48.562;12.108;2023-05-16T07:05:18;19.60;;;17.80;;
26062;SDS011;13837;48.562;12.108;2023-05-16T07:07:44;21.23;;;19.10;;
26062;SDS011;13837;48.562;12.108;2023-05-16T07:10:11;20.55;;;18.45;;
26062;SDS011;13837;48.562;12.108;2023-05-16T07:12:39;20.85;;;18.75;;
26062;SDS011;13837;48.562;12.108;2023-05-16T07:15:06;20.70;;;18.70;;
26062;SDS011;13837;48.562;12.108;2023-05-16T07:17:32;20.58;;;18.52;;
26062;SDS011;13837;48.562;12.108;2023-05-16T07:19:58;20.30;;;18.25;;
26062;SDS011;13837;48.562;12.108;2023-05-16T07:22:24;20.40;;;18.30;;
26062;SDS011;13837;48.562;12.108;2023-05-16T07:24:50;20.27;;;18.27;;
26062;SDS011;13837;48.562;12.108;2023-05-16T07:27:21;20.63;;;18.73;;
26062;SDS011;13837;48.562;12.108;2023-05-16T07:29:47;20.75;;;18.58;;
26062;SDS011;13837;48.562;12.108;2023-05-16T07:32:13;20.75;;;18.65;;
26062;SDS011;13837;48.562;12.108;2023-05-16T07:34:39;21.10;;;18.88;;
26062;SDS011;13837;48.562;12.108;2023-05-16T07:37:05;20.55;;;18.45;;
26062;SDS011;13837;48.562;12.108;2023-05-16T07:39:37;20.65;;;18.55;;
26062;SDS011;13837;48.562;12.108;2023-05-16T07:42:03;20.33;;;18.20;;
26062;SDS011;13837;48.562;12.108;2023-05-16T07:44:29;20.15;;;18.13;;
26062;SDS011;13837;48.562;12.108;2023-05-16T07:46:55;20.13;;;17.90;;
26062;SDS011;13837;48.562;12.108;2023-05-16T07:49:21;20.98;;;18.77;;
26062;SDS011;13837;48.562;12.108;2023-05-16T07:51:47;20.20;;;18.20;;
26062;SDS011;13837;48.562;12.108;2023-05-16T07:54:13;20.08;;;17.98;;
26062;SDS011;13837;48.562;12.108;2023-05-16T07:56:39;20.45;;;17.83;;
26062;SDS011;13837;48.562;12.108;2023-05-16T07:59:06;20.23;;;18.15;;
26062;SDS011;13837;48.562;12.108;2023-05-16T08:01:32;20.98;;;18.98;;
26062;SDS011;13837;48.562;12.108;2023-05-16T08:03:58;20.13;;;18.13;;
26062;SDS011;13837;48.562;12.108;2023-05-16T08:06:24;21.27;;;19.08;;
26062;SDS011;13837;48.562;12.108;2023-05-16T08:08:50;20.80;;;18.83;;
26062;SDS011;13837;48.562;12.108;2023-05-16T08:11:17;21.30;;;19.05;;
26062;SDS011;13837;48.562;12.108;2023-05-16T08:13:43;20.67;;;18.58;;
26062;SDS011;13837;48.562;12.108;2023-05-16T08:16:09;22.10;;;18.85;;
26062;SDS011;13837;48.562;12.108;2023-05-16T08:18:35;20.80;;;18.42;;
26062;SDS011;13837;48.562;12.108;2023-05-16T08:21:02;19.42;;;17.63;;
26062;SDS011;13837;48.562;12.108;2023-05-16T08:23:28;20.42;;;18.42;;
26062;SDS011;13837;48.562;12.108;2023-05-16T08:25:54;20.65;;;18.60;;
26062;SDS011;13837;48.562;12.108;2023-05-16T08:28:20;22.73;;;20.48;;
26062;SDS011;13837;48.562;12.108;2023-05-16T08:30:46;20.08;;;17.98;;
26062;SDS011;13837;48.562;12.108;2023-05-16T08:33:12;20.08;;;18.10;;
26062;SDS011;13837;48.562;12.108;2023-05-16T08:35:41;20.80;;;18.67;;
26062;SDS011;13837;48.562;12.108;2023-05-16T08:38:08;20.65;;;18.73;;
26062;SDS011;13837;48.562;12.108;2023-05-16T08:40:34;22.30;;;19.58;;
26062;SDS011;13837;48.562;12.108;2023-05-16T08:43:04;21.60;;;19.48;;
26062;SDS011;13837;48.562;12.108;2023-05-16T08:45:30;21.38;;;19.17;;
26062;SDS011;13837;48.562;12.108;2023-05-16T08:47:56;21.73;;;19.45;;
26062;SDS011;13837;48.562;12.108;2023-05-16T08:50:25;21.42;;;19.42;;
26062;SDS011;13837;48.562;12.108;2023-05-16T08:52:53;20.67;;;18.73;;
26062;SDS011;13837;48.562;12.108;2023-05-16T08:55:20;21.95;;;19.58;;
26062;SDS011;13837;48.562;12.108;2023-05-16T08:57:47;21.52;;;19.45;;
26062;SDS011;13837;48.562;12.108;2023-05-16T09:00:14;22.67;;;20.38;;
26062;SDS011;13837;48.562;12.108;2023-05-16T09:02:41;21.45;;;18.90;;
26062;SDS011;13837;48.562;12.108;2023-05-16T09:05:12;22.38;;;20.08;;
26062;SDS011;13837;48.562;12.108;2023-05-16T09:07:38;23.48;;;19.83;;
26062;SDS011;13837;48.562;12.108;2023-05-16T09:10:07;20.48;;;18.38;;
26062;SDS011;13837;48.562;12.108;2023-05-16T09:12:34;22.35;;;20.02;;
26062;SDS011;13837;48.562;12.108;2023-05-16T09:15:04;21.98;;;19.42;;
26062;SDS011;13837;48.562;12.108;2023-05-16T09:17:41;22.05;;;19.73;;
26062;SDS011;13837;48.562;12.108;2023-05-16T09:20:07;22.15;;;19.85;;
26062;SDS011;13837;48.562;12.108;2023-05-16T09:22:34;21.50;;;19.42;;
26062;SDS011;13837;48.562;12.108;2023-05-16T09:25:00;22.88;;;20.63;;
26062;SDS011;13837;48.562;12.108;2023-05-16T09:27:26;21.33;;;19.27;;
26062;SDS011;13837;48.562;12.108;2023-05-16T09:29:56;20.70;;;18.63;;
26062;SDS011;13837;48.562;12.108;2023-05-16T09:32:22;21.65;;;19.35;;
26062;SDS011;13837;48.562;12.108;2023-05-16T09:34:49;21.92;;;19.73;;
26062;SDS011;13837;48.562;12.108;2023-05-16T09:37:16;21.58;;;18.52;;
26062;SDS011;13837;48.562;12.108;2023-05-16T09:39:50;20.83;;;18.83;;
26062;SDS011;13837;48.562;12.108;2023-05-16T09:42:16;21.15;;;18.95;;
26062;SDS011;13837;48.562;12.108;2023-05-16T09:44:49;21.08;;;18.88;;
26062;SDS011;13837;48.562;12.108;2023-05-16T09:47:20;20.20;;;18.13;;
26062;SDS011;13837;48.562;12.108;2023-05-16T09:49:47;20.67;;;18.65;;
26062;SDS011;13837;48.562;12.108;2023-05-16T09:52:16;20.60;;;18.40;;
26062;SDS011;13837;48.562;12.108;2023-05-16T09:54:42;18.55;;;16.67;;
26062;SDS011;13837;48.562;12.108;2023-05-16T09:57:08;18.00;;;16.13;;
26062;SDS011;13837;48.562;12.108;2023-05-16T09:59:35;16.80;;;15.20;;
26062;SDS011;13837;48.562;12.108;2023-05-16T10:02:02;16.05;;;14.45;;
26062;SDS011;13837;48.562;12.108;2023-05-16T10:04:29;16.77;;;15.07;;
26062;SDS011;13837;48.562;12.108;2023-05-16T10:06:55;14.40;;;13.10;;
26062;SDS011;13837;48.562;12.108;2023-05-16T10:09:22;15.45;;;14.07;;
26062;SDS011;13837;48.562;12.108;2023-05-16T10:11:48;16.13;;;14.52;;
26062;SDS011;13837;48.562;12.108;2023-05-16T10:14:17;15.77;;;14.25;;
26062;SDS011;13837;48.562;12.108;2023-05-16T10:16:43;17.38;;;15.30;;
26062;SDS011;13837;48.562;12.108;2023-05-16T10:19:11;14.32;;;12.93;;
26062;SDS011;13837;48.562;12.108;2023-05-16T10:21:38;13.55;;;12.27;;
26062;SDS011;13837;48.562;12.108;2023-05-16T10:24:05;12.98;;;11.88;;
26062;SDS011;13837;48.562;12.108;2023-05-16T10:26:32;12.68;;;11.40;;
26062;SDS011;13837;48.562;12.108;2023-05-16T10:28:59;12.88;;;11.57;;
26062;SDS011;13837;48.562;12.108;2023-05-16T10:31:25;11.82;;;10.73;;
26062;SDS011;13837;48.562;12.108;2023-05-16T10:33:54;14.82;;;11.50;;
26062;SDS011;13837;48.562;12.108;2023-05-16T10:36:20;12.52;;;11.23;;
26062;SDS011;13837;48.562;12.108;2023-05-16T10:38:47;12.35;;;11.15;;
26062;SDS011;13837;48.562;12.108;2023-05-16T10:41:13;12.95;;;11.65;;
26062;SDS011;13837;48.562;12.108;2023-05-16T10:43:42;11.93;;;10.88;;
26062;SDS011;13837;48.562;12.108;2023-05-16T10:48:35;12.32;;;11.02;;
26062;SDS011;13837;48.562;12.108;2023-05-16T10:51:03;12.25;;;11.15;;
26062;SDS011;13837;48.562;12.108;2023-05-16T10:53:31;12.43;;;11.10;;
26062;SDS011;13837;48.562;12.108;2023-05-16T11:06:23;13.80;;;11.98;;
26062;SDS011;13837;48.562;12.108;2023-05-16T11:16:53;13.20;;;11.98;;
26062;SDS011;13837;48.562;12.108;2023-05-16T11:19:34;12.27;;;11.20;;
26062;SDS011;13837;48.562;12.108;2023-05-16T11:25:01;16.83;;;11.98;;
26062;SDS011;13837;48.562;12.108;2023-05-16T11:27:31;12.98;;;11.77;;
26062;SDS011;13837;48.562;12.108;2023-05-16T11:30:10;13.40;;;11.93;;
26062;SDS011;13837;48.562;12.108;2023-05-16T11:32:37;13.00;;;11.75;;
26062;SDS011;13837;48.562;12.108;2023-05-16T11:35:04;12.55;;;11.45;;
26062;SDS011;13837;48.562;12.108;2023-05-16T11:37:31;12.43;;;11.35;;
26062;SDS011;13837;48.562;12.108;2023-05-16T11:39:59;12.43;;;11.32;;
26062;SDS011;13837;48.562;12.108;2023-05-16T11:42:29;11.77;;;10.68;;
26062;SDS011;13837;48.562;12.108;2023-05-16T11:45:04;11.30;;;10.20;;
26062;SDS011;13837;48.562;12.108;2023-05-16T11:47:30;12.52;;;11.43;;
26062;SDS011;13837;48.562;12.108;2023-05-16T11:49:57;12.43;;;11.15;;
26062;SDS011;13837;48.562;12.108;2023-05-16T11:52:23;14.60;;;11.50;;
26062;SDS011;13837;48.562;12.108;2023-05-16T11:54:50;12.98;;;11.80;;
26062;SDS011;13837;48.562;12.108;2023-05-16T11:57:16;12.80;;;11.57;;
26062;SDS011;13837;48.562;12.108;2023-05-16T11:59:42;12.98;;;11.88;;
26062;SDS011;13837;48.562;12.108;2023-05-16T12:02:08;11.30;;;10.23;;
26062;SDS011;13837;48.562;12.108;2023-05-16T12:04:34;12.50;;;11.43;;
26062;SDS011;13837;48.562;12.108;2023-05-16T12:07:02;11.02;;;10.00;;
26062;SDS011;13837;48.562;12.108;2023-05-16T12:09:29;9.85;;;9.15;;
26062;SDS011;13837;48.562;12.108;2023-05-16T12:11:55;11.43;;;9.35;;
26062;SDS011;13837;48.562;12.108;2023-05-16T12:14:21;10.05;;;9.43;;
26062;SDS011;13837;48.562;12.108;2023-05-16T12:16:48;9.07;;;8.48;;
26062;SDS011;13837;48.562;12.108;2023-05-16T12:19:15;8.55;;;7.95;;
26062;SDS011;13837;48.562;12.108;2023-05-16T12:21:42;9.35;;;8.65;;
26062;SDS011;13837;48.562;12.108;2023-05-16T12:24:08;10.10;;;9.35;;
26062;SDS011;13837;48.562;12.108;2023-05-16T12:26:37;11.00;;;10.00;;
26062;SDS011;13837;48.562;12.108;2023-05-16T12:29:03;10.52;;;9.70;;
26062;SDS011;13837;48.562;12.108;2023-05-16T12:31:34;10.30;;;9.50;;
26062;SDS011;13837;48.562;12.108;2023-05-16T12:34:01;11.35;;;10.55;;
26062;SDS011;13837;48.562;12.108;2023-05-16T12:36:30;11.68;;;10.80;;
26062;SDS011;13837;48.562;12.108;2023-05-16T12:38:59;11.23;;;10.43;;
26062;SDS011;13837;48.562;12.108;2023-05-16T12:41:25;11.40;;;10.50;;
26062;SDS011;13837;48.562;12.108;2023-05-16T12:43:51;11.40;;;10.07;;
26062;SDS011;13837;48.562;12.108;2023-05-16T12:46:30;11.10;;;10.32;;
26062;SDS011;13837;48.562;12.108;2023-05-16T12:49:02;12.50;;;11.50;;
26062;SDS011;13837;48.562;12.108;2023-05-16T12:51:32;12.05;;;11.15;;
26062;SDS011;13837;48.562;12.108;2023-05-16T12:54:05;11.45;;;10.63;;
26062;SDS011;13837;48.562;12.108;2023-05-16T12:56:39;11.93;;;11.00;;
26062;SDS011;13837;48.562;12.108;2023-05-16T12:59:06;12.82;;;11.70;;
26062;SDS011;13837;48.562;12.108;2023-05-16T13:01:33;15.35;;;11.90;;
26062;SDS011;13837;48.562;12.108;2023-05-16T13:03:59;11.73;;;10.80;;
26062;SDS011;13837;48.562;12.108;2023-05-16T13:06:26;11.60;;;10.63;;
26062;SDS011;13837;48.562;12.108;2023-05-16T13:08:52;12.98;;;11.98;;
26062;SDS011;13837;48.562;12.108;2023-05-16T13:11:18;13.75;;;12.65;;
26062;SDS011;13837;48.562;12.108;2023-05-16T13:13:44;10.60;;;9.73;;
26062;SDS011;13837;48.562;12.108;2023-05-16T13:16:10;12.75;;;11.85;;
26062;SDS011;13837;48.562;12.108;2023-05-16T13:18:37;12.45;;;11.55;;
26062;SDS011;13837;48.562;12.108;2023-05-16T13:21:03;14.05;;;12.85;;
26062;SDS011;13837;48.562;12.108;2023-05-16T13:23:29;14.55;;;13.25;;
26062;SDS011;13837;48.562;12.108;2023-05-16T13:25:55;13.77;;;12.45;;
26062;SDS011;13837;48.562;12.108;2023-05-16T13:28:21;13.80;;;12.57;;
26062;SDS011;13837;48.562;12.108;2023-05-16T13:30:47;15.57;;;14.13;;
26062;SDS011;13837;48.562;12.108;2023-05-16T13:33:13;16.58;;;15.23;;
26062;SDS011;13837;48.562;12.108;2023-05-16T13:35:40;15.20;;;14.00;;
26062;SDS011;13837;48.562;12.108;2023-05-16T13:38:06;14.65;;;13.45;;
26062;SDS011;13837;48.562;12.108;2023-05-16T13:40:32;16.40;;;15.10;;
26062;SDS011;13837;48.562;12.108;2023-05-16T13:42:58;16.80;;;15.30;;
26062;SDS011;13837;48.562;12.108;2023-05-16T13:45:25;17.50;;;16.10;;
26062;SDS011;13837;48.562;12.108;2023-05-16T13:47:51;16.88;;;15.50;;
26062;SDS011;13837;48.562;12.108;2023-05-16T13:50:18;16.20;;;14.80;;
26062;SDS011;13837;48.562;12.108;2023-05-16T13:52:44;16.88;;;15.55;;
26062;SDS011;13837;48.562;12.108;2023-05-16T13:55:12;15.32;;;13.73;;
26062;SDS011;13837;48.562;12.108;2023-05-16T13:57:39;16.30;;;14.93;;
26062;SDS011;13837;48.562;12.108;2023-05-16T14:00:05;14.82;;;13.63;;
26062;SDS011;13837;48.562;12.108;2023-05-16T14:02:40;14.07;;;12.93;;
26062;SDS011;13837;48.562;12.108;2023-05-16T14:05:07;15.95;;;14.65;;
26062;SDS011;13837;48.562;12.108;2023-05-16T14:07:34;16.35;;;14.95;;
26062;SDS011;13837;48.562;12.108;2023-05-16T14:10:00;16.05;;;14.55;;
26062;SDS011;13837;48.562;12.108;2023-05-16T14:12:26;18.85;;;17.38;;
26062;SDS011;13837;48.562;12.108;2023-05-16T14:14:52;16.27;;;14.88;;
26062;SDS011;13837;48.562;12.108;2023-05-16T14:17:19;19.50;;;17.70;;
26062;SDS011;13837;48.562;12.108;2023-05-16T14:19:45;16.42;;;14.93;;
26062;SDS011;13837;48.562;12.108;2023-05-16T14:22:11;15.30;;;14.10;;
26062;SDS011;13837;48.562;12.108;2023-05-16T14:24:37;15.90;;;14.60;;
26062;SDS011;13837;48.562;12.108;2023-05-16T14:27:03;14.52;;;13.32;;
26062;SDS011;13837;48.562;12.108;2023-05-16T14:29:29;14.63;;;13.43;;
26062;SDS011;13837;48.562;12.108;2023-05-16T14:31:55;13.43;;;12.18;;
26062;SDS011;13837;48.562;12.108;2023-05-16T14:34:21;11.23;;;10.23;;
26062;SDS011;13837;48.562;12.108;2023-05-16T14:36:47;11.95;;;10.85;;
26062;SDS011;13837;48.562;12.108;2023-05-16T14:39:13;12.57;;;11.57;;
26062;SDS011;13837;48.562;12.108;2023-05-16T14:41:40;11.38;;;10.48;;
26062;SDS011;13837;48.562;12.108;2023-05-16T14:44:06;11.68;;;10.77;;
26062;SDS011;13837;48.562;12.108;2023-05-16T14:46:32;11.20;;;10.30;;
26062;SDS011;13837;48.562;12.108;2023-05-16T14:48:58;13.32;;;12.23;;
26062;SDS011;13837;48.562;12.108;2023-05-16T14:51:24;12.05;;;10.90;;